SSEC Globe Logo

Space Science and Engineering Center

Regional Terminal Forecasts

KMSN 232112Z 2321/2418 28009KT P6SM BKN022 FM240000 29006KT
     P6SM SCT025 FM241100 04006KT 6SM BR FEW030 FM241600
     09010KT P6SM BKN035 OVC250=
KMKE 232109Z 2321/2424 26012G20KT P6SM BKN016 FM232300
     27010KT P6SM BKN022 FM240200 29007KT P6SM SCT025
     FM240600 03004KT P6SM FEW030 SCT250 FM241600 08011KT
     P6SM BKN040 FM242100 09014KT P6SM VCSH OVC030=
KGRB 231733Z 2318/2418 25012G20KT P6SM SCT015 OVC025 TEMPO
     2318/2322 BKN015 FM232200 27010G15KT P6SM SCT025 TEMPO
     2322/2402 BKN025 FM240300 30006KT P6SM FEW012 FM240800
     VRB03KT P6SM SCT012 TEMPO 2408/2412 4SM BR FM241400
     07004KT P6SM SCT012 BKN150=
KAUW 231733Z 2318/2418 27010G17KT P6SM OVC010 FM232100
     29007KT P6SM BKN011 FM240300 30005KT P6SM SCT016
     FM240800 VRB03KT P6SM SCT012 TEMPO 2408/2412 3SM BR
     FM241400 10004KT P6SM SCT012 BKN150=
KEAU 231745Z 2318/2418 26012KT P6SM OVC012 FM240000 26005KT
     P6SM FEW012 FM240500 00000KT 4SM BR SKC FM240800
     00000KT 3/4SM BR VV005 FM241500 10007KT P6SM SCT008
     BKN015 OVC100=
KLSE 231737Z 2318/2418 26010KT P6SM BKN025 FM232000 28009KT
     P6SM SCT040 FM241000 VRB03KT P6SM BKN020 FM241300
     07006KT P6SM BKN035=
KDBQ 231748Z 2318/2418 28013KT P6SM BKN016 FM232200 30008KT
     P6SM SCT020 FM240500 03007KT P6SM SCT150 FM241500
     09011KT P6SM BKN080=
TAF TAF AMD KRFD 232110Z 2321/2418 27010KT P6SM OVC015
     FM240000 34006KT P6SM SCT015 OVC150 FM240500 35005KT
     P6SM BKN015 OVC100 FM241200 08012KT P6SM OVC012 PROB30
     2412/2418 3SM -SN BKN007=
KORD 232110Z 2321/2424 26012G18KT P6SM OVC012 FM240000
     28007KT P6SM SCT015 OVC150 FM240600 34005KT 6SM BR
     BKN015 FM240900 04008KT 6SM BR SCT007 OVC015 FM241200
     08012KT P6SM SCT007 OVC015 PROB30 2412/2415 3SM -FZRASN
     BKN007 FM241500 10012KT 6SM -RA BR SCT007 OVC012 PROB30
     2415/2421 4SM -RA BR BKN007=